sensor_id;sensor_type;location;lat;lon;timestamp;P1;durP1;ratioP1;P2;durP2;ratioP2
11691;SDS011;33659;42.672;23.354;2023-07-13T00:01:29;5.53;;;3.70;;
11691;SDS011;33659;42.672;23.354;2023-07-13T00:03:57;4.18;;;3.60;;
11691;SDS011;33659;42.672;23.354;2023-07-13T00:06:25;6.60;;;3.10;;
11691;SDS011;33659;42.672;23.354;2023-07-13T00:08:57;4.65;;;3.50;;
11691;SDS011;33659;42.672;23.354;2023-07-13T00:11:24;7.43;;;4.30;;
11691;SDS011;33659;42.672;23.354;2023-07-13T00:13:51;4.70;;;3.47;;
11691;SDS011;33659;42.672;23.354;2023-07-13T00:16:18;6.75;;;3.50;;
11691;SDS011;33659;42.672;23.354;2023-07-13T00:18:45;4.53;;;3.72;;
11691;SDS011;33659;42.672;23.354;2023-07-13T00:21:14;3.55;;;3.08;;
11691;SDS011;33659;42.672;23.354;2023-07-13T00:23:41;7.75;;;3.80;;
11691;SDS011;33659;42.672;23.354;2023-07-13T00:26:09;8.73;;;3.50;;
11691;SDS011;33659;42.672;23.354;2023-07-13T00:28:37;7.88;;;3.35;;
11691;SDS011;33659;42.672;23.354;2023-07-13T00:31:07;6.22;;;3.80;;
11691;SDS011;33659;42.672;23.354;2023-07-13T00:33:34;4.75;;;3.80;;
11691;SDS011;33659;42.672;23.354;2023-07-13T00:36:01;5.93;;;3.60;;
11691;SDS011;33659;42.672;23.354;2023-07-13T00:38:29;6.25;;;3.92;;
11691;SDS011;33659;42.672;23.354;2023-07-13T00:40:56;6.25;;;3.30;;
11691;SDS011;33659;42.672;23.354;2023-07-13T00:43:25;4.25;;;3.50;;
11691;SDS011;33659;42.672;23.354;2023-07-13T00:46:11;8.10;;;4.22;;
11691;SDS011;33659;42.672;23.354;2023-07-13T00:48:53;6.47;;;3.83;;
11691;SDS011;33659;42.672;23.354;2023-07-13T00:51:24;7.78;;;3.70;;
11691;SDS011;33659;42.672;23.354;2023-07-13T00:53:56;6.95;;;4.28;;
11691;SDS011;33659;42.672;23.354;2023-07-13T00:56:25;4.82;;;3.47;;
11691;SDS011;33659;42.672;23.354;2023-07-13T00:58:53;6.50;;;4.07;;
11691;SDS011;33659;42.672;23.354;2023-07-13T01:01:21;5.13;;;3.65;;
11691;SDS011;33659;42.672;23.354;2023-07-13T01:03:47;5.97;;;4.03;;
11691;SDS011;33659;42.672;23.354;2023-07-13T01:06:15;4.22;;;3.75;;
11691;SDS011;33659;42.672;23.354;2023-07-13T01:08:43;6.97;;;3.97;;
11691;SDS011;33659;42.672;23.354;2023-07-13T01:11:11;6.32;;;4.25;;
11691;SDS011;33659;42.672;23.354;2023-07-13T01:13:38;5.15;;;4.13;;
11691;SDS011;33659;42.672;23.354;2023-07-13T01:16:05;7.90;;;4.95;;
11691;SDS011;33659;42.672;23.354;2023-07-13T01:18:41;10.27;;;4.80;;
11691;SDS011;33659;42.672;23.354;2023-07-13T01:21:09;8.20;;;4.15;;
11691;SDS011;33659;42.672;23.354;2023-07-13T01:23:36;6.53;;;4.55;;
11691;SDS011;33659;42.672;23.354;2023-07-13T01:26:02;6.78;;;4.18;;
11691;SDS011;33659;42.672;23.354;2023-07-13T01:28:29;10.70;;;4.18;;
11691;SDS011;33659;42.672;23.354;2023-07-13T01:30:57;5.88;;;4.18;;
11691;SDS011;33659;42.672;23.354;2023-07-13T01:33:25;5.03;;;3.97;;
11691;SDS011;33659;42.672;23.354;2023-07-13T01:35:52;6.93;;;4.30;;
11691;SDS011;33659;42.672;23.354;2023-07-13T01:38:21;8.73;;;4.72;;
11691;SDS011;33659;42.672;23.354;2023-07-13T01:40:49;7.18;;;4.15;;
11691;SDS011;33659;42.672;23.354;2023-07-13T01:43:16;5.03;;;4.25;;
11691;SDS011;33659;42.672;23.354;2023-07-13T01:45:43;4.75;;;3.92;;
11691;SDS011;33659;42.672;23.354;2023-07-13T01:48:10;6.85;;;3.80;;
11691;SDS011;33659;42.672;23.354;2023-07-13T01:50:38;9.82;;;3.92;;
11691;SDS011;33659;42.672;23.354;2023-07-13T01:53:04;12.55;;;3.60;;
11691;SDS011;33659;42.672;23.354;2023-07-13T01:55:33;8.60;;;4.00;;
11691;SDS011;33659;42.672;23.354;2023-07-13T01:58:00;4.20;;;3.53;;
11691;SDS011;33659;42.672;23.354;2023-07-13T02:00:27;4.40;;;3.70;;
11691;SDS011;33659;42.672;23.354;2023-07-13T02:02:54;6.97;;;4.05;;
11691;SDS011;33659;42.672;23.354;2023-07-13T02:05:21;5.85;;;3.45;;
11691;SDS011;33659;42.672;23.354;2023-07-13T02:07:48;6.45;;;4.03;;
11691;SDS011;33659;42.672;23.354;2023-07-13T02:10:15;5.03;;;3.58;;
11691;SDS011;33659;42.672;23.354;2023-07-13T02:12:43;6.95;;;3.70;;
11691;SDS011;33659;42.672;23.354;2023-07-13T02:15:11;6.03;;;4.18;;
11691;SDS011;33659;42.672;23.354;2023-07-13T02:17:37;4.03;;;3.65;;
11691;SDS011;33659;42.672;23.354;2023-07-13T02:20:05;4.60;;;3.70;;
11691;SDS011;33659;42.672;23.354;2023-07-13T02:22:33;6.50;;;3.67;;
11691;SDS011;33659;42.672;23.354;2023-07-13T02:25:00;6.93;;;3.60;;
11691;SDS011;33659;42.672;23.354;2023-07-13T02:27:26;4.30;;;3.67;;
11691;SDS011;33659;42.672;23.354;2023-07-13T02:29:54;4.50;;;3.38;;
11691;SDS011;33659;42.672;23.354;2023-07-13T02:32:21;5.53;;;3.85;;
11691;SDS011;33659;42.672;23.354;2023-07-13T02:34:50;4.68;;;3.40;;
11691;SDS011;33659;42.672;23.354;2023-07-13T02:37:17;5.75;;;3.70;;
11691;SDS011;33659;42.672;23.354;2023-07-13T02:39:44;4.80;;;3.60;;
11691;SDS011;33659;42.672;23.354;2023-07-13T02:42:10;4.57;;;3.72;;
11691;SDS011;33659;42.672;23.354;2023-07-13T02:44:37;4.82;;;3.63;;
11691;SDS011;33659;42.672;23.354;2023-07-13T02:47:05;5.95;;;3.78;;
11691;SDS011;33659;42.672;23.354;2023-07-13T02:49:32;5.72;;;3.70;;
11691;SDS011;33659;42.672;23.354;2023-07-13T02:51:59;4.55;;;3.40;;
11691;SDS011;33659;42.672;23.354;2023-07-13T02:54:26;7.93;;;3.65;;
11691;SDS011;33659;42.672;23.354;2023-07-13T02:56:52;4.57;;;3.53;;
11691;SDS011;33659;42.672;23.354;2023-07-13T02:59:19;7.25;;;3.75;;
11691;SDS011;33659;42.672;23.354;2023-07-13T03:01:46;4.40;;;3.70;;
11691;SDS011;33659;42.672;23.354;2023-07-13T03:04:14;5.85;;;3.92;;
11691;SDS011;33659;42.672;23.354;2023-07-13T03:06:44;8.57;;;3.90;;
11691;SDS011;33659;42.672;23.354;2023-07-13T03:09:11;8.70;;;4.10;;
11691;SDS011;33659;42.672;23.354;2023-07-13T03:11:38;4.65;;;3.75;;
11691;SDS011;33659;42.672;23.354;2023-07-13T03:14:05;6.00;;;3.88;;
11691;SDS011;33659;42.672;23.354;2023-07-13T03:16:33;6.55;;;4.10;;
11691;SDS011;33659;42.672;23.354;2023-07-13T03:19:00;6.90;;;4.05;;
11691;SDS011;33659;42.672;23.354;2023-07-13T03:21:28;7.45;;;3.80;;
11691;SDS011;33659;42.672;23.354;2023-07-13T03:23:54;5.45;;;3.83;;
11691;SDS011;33659;42.672;23.354;2023-07-13T03:26:21;4.15;;;3.47;;
11691;SDS011;33659;42.672;23.354;2023-07-13T03:28:48;6.57;;;4.20;;
11691;SDS011;33659;42.672;23.354;2023-07-13T03:31:17;6.63;;;4.10;;
11691;SDS011;33659;42.672;23.354;2023-07-13T03:33:45;8.18;;;4.20;;
11691;SDS011;33659;42.672;23.354;2023-07-13T03:36:14;5.28;;;4.30;;
11691;SDS011;33659;42.672;23.354;2023-07-13T03:38:45;6.63;;;3.55;;
11691;SDS011;33659;42.672;23.354;2023-07-13T03:41:13;6.50;;;4.32;;
11691;SDS011;33659;42.672;23.354;2023-07-13T03:43:40;9.60;;;4.20;;
11691;SDS011;33659;42.672;23.354;2023-07-13T03:46:06;6.13;;;4.38;;
11691;SDS011;33659;42.672;23.354;2023-07-13T03:48:33;5.55;;;4.43;;
11691;SDS011;33659;42.672;23.354;2023-07-13T03:51:00;7.25;;;4.22;;
11691;SDS011;33659;42.672;23.354;2023-07-13T03:53:27;7.13;;;4.60;;
11691;SDS011;33659;42.672;23.354;2023-07-13T03:55:55;5.18;;;4.15;;
11691;SDS011;33659;42.672;23.354;2023-07-13T04:01:07;7.07;;;4.20;;
11691;SDS011;33659;42.672;23.354;2023-07-13T04:03:36;8.65;;;5.55;;
11691;SDS011;33659;42.672;23.354;2023-07-13T04:06:04;8.43;;;4.60;;
11691;SDS011;33659;42.672;23.354;2023-07-13T04:08:33;8.43;;;5.60;;
11691;SDS011;33659;42.672;23.354;2023-07-13T04:11:04;6.00;;;5.20;;
11691;SDS011;33659;42.672;23.354;2023-07-13T04:13:31;7.47;;;5.00;;
11691;SDS011;33659;42.672;23.354;2023-07-13T04:15:57;7.38;;;5.20;;
11691;SDS011;33659;42.672;23.354;2023-07-13T04:18:24;8.80;;;4.68;;
11691;SDS011;33659;42.672;23.354;2023-07-13T04:20:51;8.50;;;6.05;;
11691;SDS011;33659;42.672;23.354;2023-07-13T04:23:18;6.90;;;5.20;;
11691;SDS011;33659;42.672;23.354;2023-07-13T04:25:45;9.48;;;5.53;;
11691;SDS011;33659;42.672;23.354;2023-07-13T04:28:15;6.72;;;5.45;;
11691;SDS011;33659;42.672;23.354;2023-07-13T04:30:42;6.68;;;4.68;;
11691;SDS011;33659;42.672;23.354;2023-07-13T04:33:09;7.07;;;4.97;;
11691;SDS011;33659;42.672;23.354;2023-07-13T04:35:36;7.72;;;4.80;;
11691;SDS011;33659;42.672;23.354;2023-07-13T04:38:03;5.47;;;4.70;;
11691;SDS011;33659;42.672;23.354;2023-07-13T04:40:30;8.52;;;5.55;;
11691;SDS011;33659;42.672;23.354;2023-07-13T04:42:57;7.60;;;5.28;;
11691;SDS011;33659;42.672;23.354;2023-07-13T04:45:25;7.95;;;5.45;;
11691;SDS011;33659;42.672;23.354;2023-07-13T04:47:52;6.28;;;4.68;;
11691;SDS011;33659;42.672;23.354;2023-07-13T04:50:19;13.73;;;5.05;;
11691;SDS011;33659;42.672;23.354;2023-07-13T04:52:48;6.45;;;4.88;;
11691;SDS011;33659;42.672;23.354;2023-07-13T04:55:15;9.50;;;5.00;;
11691;SDS011;33659;42.672;23.354;2023-07-13T04:57:42;5.97;;;5.05;;
11691;SDS011;33659;42.672;23.354;2023-07-13T05:00:10;6.65;;;5.13;;
11691;SDS011;33659;42.672;23.354;2023-07-13T05:02:39;7.80;;;4.72;;
11691;SDS011;33659;42.672;23.354;2023-07-13T05:05:06;8.52;;;5.18;;
11691;SDS011;33659;42.672;23.354;2023-07-13T05:07:33;10.93;;;5.18;;
11691;SDS011;33659;42.672;23.354;2023-07-13T05:10:00;12.93;;;5.60;;
11691;SDS011;33659;42.672;23.354;2023-07-13T05:12:27;7.57;;;5.82;;
11691;SDS011;33659;42.672;23.354;2023-07-13T05:14:54;6.45;;;5.35;;
11691;SDS011;33659;42.672;23.354;2023-07-13T05:17:21;7.25;;;5.30;;
11691;SDS011;33659;42.672;23.354;2023-07-13T05:19:49;8.63;;;5.65;;
11691;SDS011;33659;42.672;23.354;2023-07-13T05:22:15;6.75;;;5.68;;
11691;SDS011;33659;42.672;23.354;2023-07-13T05:24:42;7.80;;;5.25;;
11691;SDS011;33659;42.672;23.354;2023-07-13T05:27:09;9.45;;;5.57;;
11691;SDS011;33659;42.672;23.354;2023-07-13T05:29:36;11.48;;;5.68;;
11691;SDS011;33659;42.672;23.354;2023-07-13T05:32:03;9.63;;;5.88;;
11691;SDS011;33659;42.672;23.354;2023-07-13T05:34:30;12.23;;;5.85;;
11691;SDS011;33659;42.672;23.354;2023-07-13T05:36:59;9.50;;;6.00;;
11691;SDS011;33659;42.672;23.354;2023-07-13T05:39:25;11.65;;;6.55;;
11691;SDS011;33659;42.672;23.354;2023-07-13T05:41:52;13.32;;;5.88;;
11691;SDS011;33659;42.672;23.354;2023-07-13T05:44:19;16.08;;;5.82;;
11691;SDS011;33659;42.672;23.354;2023-07-13T05:46:46;13.30;;;6.50;;
11691;SDS011;33659;42.672;23.354;2023-07-13T05:49:13;7.63;;;5.70;;
11691;SDS011;33659;42.672;23.354;2023-07-13T05:51:39;8.40;;;6.28;;
11691;SDS011;33659;42.672;23.354;2023-07-13T05:54:07;12.32;;;5.88;;
11691;SDS011;33659;42.672;23.354;2023-07-13T05:56:34;7.63;;;6.25;;
11691;SDS011;33659;42.672;23.354;2023-07-13T05:59:01;12.25;;;6.43;;
11691;SDS011;33659;42.672;23.354;2023-07-13T06:01:29;10.93;;;6.47;;
11691;SDS011;33659;42.672;23.354;2023-07-13T06:03:56;10.15;;;6.60;;
11691;SDS011;33659;42.672;23.354;2023-07-13T06:06:23;10.68;;;6.40;;
11691;SDS011;33659;42.672;23.354;2023-07-13T06:08:50;12.90;;;7.68;;
11691;SDS011;33659;42.672;23.354;2023-07-13T06:11:19;12.85;;;7.03;;
11691;SDS011;33659;42.672;23.354;2023-07-13T06:13:48;9.85;;;5.60;;
11691;SDS011;33659;42.672;23.354;2023-07-13T06:16:15;8.80;;;6.45;;
11691;SDS011;33659;42.672;23.354;2023-07-13T06:18:42;8.93;;;5.60;;
11691;SDS011;33659;42.672;23.354;2023-07-13T06:21:10;7.50;;;5.60;;
11691;SDS011;33659;42.672;23.354;2023-07-13T06:23:38;9.10;;;4.97;;
11691;SDS011;33659;42.672;23.354;2023-07-13T06:26:05;6.85;;;5.57;;
11691;SDS011;33659;42.672;23.354;2023-07-13T06:28:34;9.82;;;5.57;;
11691;SDS011;33659;42.672;23.354;2023-07-13T06:31:01;11.65;;;6.38;;
11691;SDS011;33659;42.672;23.354;2023-07-13T06:33:30;6.95;;;5.25;;
11691;SDS011;33659;42.672;23.354;2023-07-13T06:35:57;6.22;;;4.85;;
11691;SDS011;33659;42.672;23.354;2023-07-13T06:38:24;7.55;;;5.13;;
11691;SDS011;33659;42.672;23.354;2023-07-13T06:40:51;10.60;;;5.40;;
11691;SDS011;33659;42.672;23.354;2023-07-13T06:43:18;5.85;;;4.65;;
11691;SDS011;33659;42.672;23.354;2023-07-13T06:45:48;7.35;;;5.43;;
11691;SDS011;33659;42.672;23.354;2023-07-13T06:48:16;6.40;;;4.63;;
11691;SDS011;33659;42.672;23.354;2023-07-13T06:50:44;7.10;;;4.70;;
11691;SDS011;33659;42.672;23.354;2023-07-13T06:53:11;12.95;;;5.45;;
11691;SDS011;33659;42.672;23.354;2023-07-13T06:55:39;6.65;;;5.22;;
11691;SDS011;33659;42.672;23.354;2023-07-13T06:58:06;7.55;;;5.05;;
11691;SDS011;33659;42.672;23.354;2023-07-13T07:00:33;8.40;;;4.68;;
11691;SDS011;33659;42.672;23.354;2023-07-13T07:03:01;7.28;;;5.38;;
11691;SDS011;33659;42.672;23.354;2023-07-13T07:05:28;11.43;;;5.53;;
11691;SDS011;33659;42.672;23.354;2023-07-13T07:07:55;10.43;;;5.18;;
11691;SDS011;33659;42.672;23.354;2023-07-13T07:10:22;8.23;;;5.50;;
11691;SDS011;33659;42.672;23.354;2023-07-13T07:12:48;8.32;;;5.40;;
11691;SDS011;33659;42.672;23.354;2023-07-13T07:15:15;10.38;;;6.10;;
11691;SDS011;33659;42.672;23.354;2023-07-13T07:17:42;8.10;;;5.30;;
11691;SDS011;33659;42.672;23.354;2023-07-13T07:20:11;9.52;;;5.30;;
11691;SDS011;33659;42.672;23.354;2023-07-13T07:22:38;6.90;;;5.75;;
11691;SDS011;33659;42.672;23.354;2023-07-13T07:25:05;9.25;;;5.68;;
11691;SDS011;33659;42.672;23.354;2023-07-13T07:27:32;8.25;;;5.32;;
11691;SDS011;33659;42.672;23.354;2023-07-13T07:29:59;9.43;;;5.75;;
11691;SDS011;33659;42.672;23.354;2023-07-13T07:32:28;9.98;;;4.90;;
11691;SDS011;33659;42.672;23.354;2023-07-13T07:34:55;9.23;;;5.55;;
11691;SDS011;33659;42.672;23.354;2023-07-13T07:37:24;10.30;;;5.43;;
11691;SDS011;33659;42.672;23.354;2023-07-13T07:39:51;12.85;;;5.60;;
11691;SDS011;33659;42.672;23.354;2023-07-13T07:42:18;7.45;;;4.80;;
11691;SDS011;33659;42.672;23.354;2023-07-13T07:44:44;6.43;;;4.85;;
11691;SDS011;33659;42.672;23.354;2023-07-13T07:47:11;9.48;;;5.90;;
11691;SDS011;33659;42.672;23.354;2023-07-13T07:49:38;10.70;;;5.95;;
11691;SDS011;33659;42.672;23.354;2023-07-13T07:52:05;10.45;;;5.72;;
11691;SDS011;33659;42.672;23.354;2023-07-13T07:54:34;9.90;;;5.32;;
11691;SDS011;33659;42.672;23.354;2023-07-13T07:57:01;9.38;;;5.68;;
11691;SDS011;33659;42.672;23.354;2023-07-13T07:59:27;11.93;;;5.78;;
11691;SDS011;33659;42.672;23.354;2023-07-13T08:01:54;10.25;;;6.07;;
11691;SDS011;33659;42.672;23.354;2023-07-13T08:04:21;9.02;;;5.90;;
11691;SDS011;33659;42.672;23.354;2023-07-13T08:06:48;11.73;;;5.90;;
11691;SDS011;33659;42.672;23.354;2023-07-13T08:09:14;12.27;;;6.03;;
11691;SDS011;33659;42.672;23.354;2023-07-13T08:11:42;9.43;;;5.85;;
11691;SDS011;33659;42.672;23.354;2023-07-13T08:14:09;9.68;;;5.88;;
11691;SDS011;33659;42.672;23.354;2023-07-13T08:16:36;5.82;;;5.25;;
11691;SDS011;33659;42.672;23.354;2023-07-13T08:19:03;14.52;;;6.10;;
11691;SDS011;33659;42.672;23.354;2023-07-13T08:21:31;9.55;;;5.78;;
11691;SDS011;33659;42.672;23.354;2023-07-13T08:23:58;12.05;;;6.18;;
11691;SDS011;33659;42.672;23.354;2023-07-13T08:26:24;8.55;;;5.68;;
11691;SDS011;33659;42.672;23.354;2023-07-13T08:28:52;7.93;;;5.72;;
11691;SDS011;33659;42.672;23.354;2023-07-13T08:31:19;8.52;;;6.57;;
11691;SDS011;33659;42.672;23.354;2023-07-13T08:33:46;12.65;;;6.20;;
11691;SDS011;33659;42.672;23.354;2023-07-13T08:36:12;7.40;;;6.20;;
11691;SDS011;33659;42.672;23.354;2023-07-13T08:38:39;9.73;;;6.22;;
11691;SDS011;33659;42.672;23.354;2023-07-13T08:41:10;8.13;;;5.60;;
11691;SDS011;33659;42.672;23.354;2023-07-13T08:43:38;10.65;;;6.65;;
11691;SDS011;33659;42.672;23.354;2023-07-13T08:46:08;7.80;;;5.65;;
11691;SDS011;33659;42.672;23.354;2023-07-13T08:48:40;7.78;;;5.32;;
11691;SDS011;33659;42.672;23.354;2023-07-13T08:51:15;9.85;;;5.63;;
11691;SDS011;33659;42.672;23.354;2023-07-13T08:53:57;8.70;;;5.50;;
11691;SDS011;33659;42.672;23.354;2023-07-13T08:56:28;9.23;;;5.68;;
11691;SDS011;33659;42.672;23.354;2023-07-13T08:58:57;8.70;;;5.22;;
11691;SDS011;33659;42.672;23.354;2023-07-13T09:01:30;9.68;;;6.20;;
11691;SDS011;33659;42.672;23.354;2023-07-13T09:04:06;9.25;;;5.78;;
11691;SDS011;33659;42.672;23.354;2023-07-13T09:06:44;11.88;;;6.18;;
11691;SDS011;33659;42.672;23.354;2023-07-13T09:09:19;10.55;;;5.70;;
11691;SDS011;33659;42.672;23.354;2023-07-13T09:11:59;8.55;;;5.72;;
11691;SDS011;33659;42.672;23.354;2023-07-13T09:14:36;14.45;;;5.70;;
11691;SDS011;33659;42.672;23.354;2023-07-13T09:17:12;10.65;;;5.50;;
11691;SDS011;33659;42.672;23.354;2023-07-13T09:19:43;8.20;;;5.85;;
11691;SDS011;33659;42.672;23.354;2023-07-13T09:22:13;15.18;;;6.38;;
11691;SDS011;33659;42.672;23.354;2023-07-13T09:24:47;11.93;;;5.97;;
11691;SDS011;33659;42.672;23.354;2023-07-13T09:27:22;11.93;;;6.10;;
11691;SDS011;33659;42.672;23.354;2023-07-13T09:29:57;8.30;;;5.82;;
11691;SDS011;33659;42.672;23.354;2023-07-13T09:32:29;20.13;;;6.45;;
11691;SDS011;33659;42.672;23.354;2023-07-13T09:34:57;9.15;;;5.88;;
11691;SDS011;33659;42.672;23.354;2023-07-13T09:37:28;7.68;;;6.35;;
11691;SDS011;33659;42.672;23.354;2023-07-13T09:39:58;10.10;;;6.25;;
11691;SDS011;33659;42.672;23.354;2023-07-13T09:42:27;10.82;;;5.95;;
11691;SDS011;33659;42.672;23.354;2023-07-13T09:44:55;9.50;;;6.05;;
11691;SDS011;33659;42.672;23.354;2023-07-13T09:47:24;9.48;;;5.90;;
11691;SDS011;33659;42.672;23.354;2023-07-13T09:49:57;8.73;;;5.70;;
11691;SDS011;33659;42.672;23.354;2023-07-13T09:52:25;8.50;;;5.65;;
11691;SDS011;33659;42.672;23.354;2023-07-13T09:54:53;10.45;;;5.82;;
11691;SDS011;33659;42.672;23.354;2023-07-13T09:57:25;11.18;;;6.38;;
11691;SDS011;33659;42.672;23.354;2023-07-13T09:59:53;10.48;;;6.25;;
11691;SDS011;33659;42.672;23.354;2023-07-13T10:02:24;7.40;;;5.80;;
11691;SDS011;33659;42.672;23.354;2023-07-13T10:04:56;12.05;;;6.43;;
11691;SDS011;33659;42.672;23.354;2023-07-13T10:07:25;11.02;;;6.13;;
11691;SDS011;33659;42.672;23.354;2023-07-13T10:09:52;10.30;;;6.22;;
11691;SDS011;33659;42.672;23.354;2023-07-13T10:12:20;12.95;;;5.93;;
11691;SDS011;33659;42.672;23.354;2023-07-13T10:14:49;9.10;;;5.93;;
11691;SDS011;33659;42.672;23.354;2023-07-13T10:17:18;9.25;;;6.20;;
11691;SDS011;33659;42.672;23.354;2023-07-13T10:19:50;7.65;;;6.03;;
11691;SDS011;33659;42.672;23.354;2023-07-13T10:22:21;7.18;;;5.55;;
11691;SDS011;33659;42.672;23.354;2023-07-13T10:24:51;10.55;;;5.43;;
11691;SDS011;33659;42.672;23.354;2023-07-13T10:27:20;12.57;;;5.70;;
11691;SDS011;33659;42.672;23.354;2023-07-13T10:30:01;8.70;;;5.85;;
11691;SDS011;33659;42.672;23.354;2023-07-13T10:32:33;6.13;;;5.07;;
11691;SDS011;33659;42.672;23.354;2023-07-13T10:35:00;8.40;;;5.13;;
11691;SDS011;33659;42.672;23.354;2023-07-13T10:37:31;6.82;;;4.85;;
11691;SDS011;33659;42.672;23.354;2023-07-13T10:40:05;6.68;;;4.95;;
11691;SDS011;33659;42.672;23.354;2023-07-13T10:42:39;11.57;;;4.10;;
11691;SDS011;33659;42.672;23.354;2023-07-13T10:45:12;7.13;;;3.75;;
11691;SDS011;33659;42.672;23.354;2023-07-13T10:47:41;8.98;;;3.53;;
11691;SDS011;33659;42.672;23.354;2023-07-13T10:50:09;5.53;;;4.03;;
11691;SDS011;33659;42.672;23.354;2023-07-13T10:52:45;7.97;;;4.03;;
11691;SDS011;33659;42.672;23.354;2023-07-13T10:55:32;6.60;;;3.45;;
11691;SDS011;33659;42.672;23.354;2023-07-13T10:58:01;7.25;;;4.40;;
11691;SDS011;33659;42.672;23.354;2023-07-13T11:00:32;7.78;;;4.35;;
11691;SDS011;33659;42.672;23.354;2023-07-13T11:03:10;6.35;;;3.55;;
11691;SDS011;33659;42.672;23.354;2023-07-13T11:05:41;5.03;;;3.70;;
11691;SDS011;33659;42.672;23.354;2023-07-13T11:08:16;8.75;;;3.78;;
11691;SDS011;33659;42.672;23.354;2023-07-13T11:10:49;10.75;;;4.13;;
11691;SDS011;33659;42.672;23.354;2023-07-13T11:16:26;7.93;;;3.60;;
11691;SDS011;33659;42.672;23.354;2023-07-13T11:19:08;8.00;;;3.55;;
11691;SDS011;33659;42.672;23.354;2023-07-13T11:22:02;6.20;;;3.95;;
11691;SDS011;33659;42.672;23.354;2023-07-13T11:24:56;7.95;;;4.03;;
11691;SDS011;33659;42.672;23.354;2023-07-13T11:27:32;6.22;;;4.30;;
11691;SDS011;33659;42.672;23.354;2023-07-13T11:33:02;4.28;;;3.63;;
11691;SDS011;33659;42.672;23.354;2023-07-13T11:35:38;8.85;;;3.70;;
11691;SDS011;33659;42.672;23.354;2023-07-13T11:38:12;4.45;;;3.50;;
11691;SDS011;33659;42.672;23.354;2023-07-13T11:40:44;5.25;;;3.58;;
11691;SDS011;33659;42.672;23.354;2023-07-13T11:43:12;4.88;;;4.05;;
11691;SDS011;33659;42.672;23.354;2023-07-13T11:45:41;4.60;;;4.18;;
11691;SDS011;33659;42.672;23.354;2023-07-13T11:48:18;9.38;;;4.43;;
11691;SDS011;33659;42.672;23.354;2023-07-13T11:50:49;6.30;;;3.83;;
11691;SDS011;33659;42.672;23.354;2023-07-13T11:53:22;7.13;;;3.97;;
11691;SDS011;33659;42.672;23.354;2023-07-13T11:55:53;9.30;;;4.53;;
11691;SDS011;33659;42.672;23.354;2023-07-13T11:58:23;7.75;;;3.88;;
11691;SDS011;33659;42.672;23.354;2023-07-13T12:00:53;10.35;;;4.10;;
11691;SDS011;33659;42.672;23.354;2023-07-13T12:03:24;6.07;;;3.75;;
11691;SDS011;33659;42.672;23.354;2023-07-13T12:05:55;10.48;;;4.13;;
11691;SDS011;33659;42.672;23.354;2023-07-13T12:08:23;5.88;;;3.65;;
11691;SDS011;33659;42.672;23.354;2023-07-13T12:10:58;9.20;;;3.95;;
11691;SDS011;33659;42.672;23.354;2023-07-13T12:13:27;9.80;;;3.90;;
11691;SDS011;33659;42.672;23.354;2023-07-13T12:15:54;6.93;;;3.70;;
11691;SDS011;33659;42.672;23.354;2023-07-13T12:18:22;10.70;;;4.25;;
11691;SDS011;33659;42.672;23.354;2023-07-13T12:20:55;8.63;;;4.25;;
11691;SDS011;33659;42.672;23.354;2023-07-13T12:23:25;5.40;;;3.83;;
11691;SDS011;33659;42.672;23.354;2023-07-13T12:25:54;5.07;;;3.50;;
11691;SDS011;33659;42.672;23.354;2023-07-13T12:28:35;7.15;;;3.47;;
11691;SDS011;33659;42.672;23.354;2023-07-13T12:31:05;6.75;;;4.18;;
11691;SDS011;33659;42.672;23.354;2023-07-13T12:33:55;6.82;;;3.40;;
11691;SDS011;33659;42.672;23.354;2023-07-13T12:36:23;8.38;;;3.95;;
11691;SDS011;33659;42.672;23.354;2023-07-13T12:38:50;8.10;;;4.03;;
11691;SDS011;33659;42.672;23.354;2023-07-13T12:41:17;5.45;;;3.28;;
11691;SDS011;33659;42.672;23.354;2023-07-13T12:43:45;6.45;;;3.58;;
11691;SDS011;33659;42.672;23.354;2023-07-13T12:46:17;7.80;;;3.67;;
11691;SDS011;33659;42.672;23.354;2023-07-13T12:48:48;7.72;;;3.97;;
11691;SDS011;33659;42.672;23.354;2023-07-13T12:51:16;8.98;;;5.03;;
11691;SDS011;33659;42.672;23.354;2023-07-13T12:53:47;4.45;;;3.42;;
11691;SDS011;33659;42.672;23.354;2023-07-13T12:56:17;6.47;;;4.32;;
11691;SDS011;33659;42.672;23.354;2023-07-13T12:58:49;8.43;;;4.25;;
11691;SDS011;33659;42.672;23.354;2023-07-13T13:01:20;9.00;;;4.32;;
11691;SDS011;33659;42.672;23.354;2023-07-13T13:03:49;6.90;;;4.57;;
11691;SDS011;33659;42.672;23.354;2023-07-13T13:06:20;5.80;;;4.43;;
11691;SDS011;33659;42.672;23.354;2023-07-13T13:08:49;9.60;;;4.10;;
11691;SDS011;33659;42.672;23.354;2023-07-13T13:11:16;6.03;;;4.07;;
11691;SDS011;33659;42.672;23.354;2023-07-13T13:13:44;8.45;;;4.53;;
11691;SDS011;33659;42.672;23.354;2023-07-13T13:16:16;6.32;;;4.50;;
11691;SDS011;33659;42.672;23.354;2023-07-13T13:18:46;9.68;;;4.50;;
11691;SDS011;33659;42.672;23.354;2023-07-13T13:21:13;5.32;;;4.10;;
11691;SDS011;33659;42.672;23.354;2023-07-13T13:23:40;6.47;;;4.20;;
11691;SDS011;33659;42.672;23.354;2023-07-13T13:26:08;7.00;;;3.72;;
11691;SDS011;33659;42.672;23.354;2023-07-13T13:28:36;6.45;;;4.78;;
11691;SDS011;33659;42.672;23.354;2023-07-13T13:31:03;10.48;;;4.20;;
11691;SDS011;33659;42.672;23.354;2023-07-13T13:33:31;6.05;;;4.13;;
11691;SDS011;33659;42.672;23.354;2023-07-13T13:35:58;10.27;;;4.35;;
11691;SDS011;33659;42.672;23.354;2023-07-13T13:38:26;6.32;;;4.10;;
11691;SDS011;33659;42.672;23.354;2023-07-13T13:40:53;8.35;;;4.28;;
11691;SDS011;33659;42.672;23.354;2023-07-13T13:43:21;7.55;;;4.80;;
11691;SDS011;33659;42.672;23.354;2023-07-13T13:45:51;7.28;;;4.78;;
11691;SDS011;33659;42.672;23.354;2023-07-13T13:48:20;6.93;;;3.70;;
11691;SDS011;33659;42.672;23.354;2023-07-13T13:50:56;10.45;;;4.25;;
11691;SDS011;33659;42.672;23.354;2023-07-13T13:53:24;7.57;;;4.68;;
11691;SDS011;33659;42.672;23.354;2023-07-13T13:55:51;8.60;;;3.70;;
11691;SDS011;33659;42.672;23.354;2023-07-13T13:58:18;6.45;;;3.65;;
11691;SDS011;33659;42.672;23.354;2023-07-13T14:00:45;7.72;;;3.95;;
11691;SDS011;33659;42.672;23.354;2023-07-13T14:03:13;8.30;;;4.25;;
11691;SDS011;33659;42.672;23.354;2023-07-13T14:05:42;4.97;;;3.88;;
11691;SDS011;33659;42.672;23.354;2023-07-13T14:08:12;8.52;;;4.85;;
11691;SDS011;33659;42.672;23.354;2023-07-13T14:10:41;11.80;;;4.60;;
11691;SDS011;33659;42.672;23.354;2023-07-13T14:13:13;6.35;;;4.70;;
11691;SDS011;33659;42.672;23.354;2023-07-13T14:15:44;9.93;;;4.32;;
11691;SDS011;33659;42.672;23.354;2023-07-13T14:18:11;12.90;;;4.70;;
11691;SDS011;33659;42.672;23.354;2023-07-13T14:20:42;8.60;;;3.90;;
11691;SDS011;33659;42.672;23.354;2023-07-13T14:23:10;10.25;;;4.85;;
11691;SDS011;33659;42.672;23.354;2023-07-13T14:25:38;8.73;;;5.13;;
11691;SDS011;33659;42.672;23.354;2023-07-13T14:28:10;6.93;;;4.60;;
11691;SDS011;33659;42.672;23.354;2023-07-13T14:30:46;8.30;;;3.78;;
11691;SDS011;33659;42.672;23.354;2023-07-13T14:33:13;8.38;;;3.70;;
11691;SDS011;33659;42.672;23.354;2023-07-13T14:35:40;6.35;;;3.42;;
11691;SDS011;33659;42.672;23.354;2023-07-13T14:38:08;6.57;;;3.50;;
11691;SDS011;33659;42.672;23.354;2023-07-13T14:40:40;11.95;;;4.07;;
11691;SDS011;33659;42.672;23.354;2023-07-13T14:43:09;10.10;;;4.40;;
11691;SDS011;33659;42.672;23.354;2023-07-13T14:45:38;9.55;;;3.50;;
11691;SDS011;33659;42.672;23.354;2023-07-13T14:48:13;4.57;;;3.83;;
11691;SDS011;33659;42.672;23.354;2023-07-13T14:50:42;9.00;;;3.67;;